Time;durP1;ratioP1;P1;durP2;ratioP2;P2;SDS_P1;SDS_P2;PMS_P1;PMS_P2;Temp;Humidity;BMP_temperature;BMP_pressure;BME280_temperature;BME280_humidity;BME280_pressure;Samples;Min_cycle;Max_cycle;Signal;HPM_P1;HPM_P2
2022/12/27 00:01:25;;;;;;;0.85;0.20;;;20.00;55.80;;;;;;5076464;28;20044;-56
2022/12/27 00:03:53;;;;;;;2.50;0.10;;;20.00;55.80;;;;;;5075899;28;20470;-56
2022/12/27 00:06:23;;;;;;;5.38;1.05;;;20.00;55.80;;;;;;5075222;28;20048;-53
2022/12/27 00:08:50;;;;;;;3.03;0.32;;;20.00;55.90;;;;;;5073804;28;20115;-55
2022/12/27 00:11:20;;;;;;;2.22;0.10;;;20.00;56.00;;;;;;5075773;28;20412;-56
2022/12/27 00:13:49;;;;;;;1.50;0.30;;;20.00;56.00;;;;;;5075246;28;20492;-55
2022/12/27 00:16:18;;;;;;;3.53;0.13;;;20.00;56.00;;;;;;5076035;28;20119;-55
2022/12/27 00:18:47;;;;;;;3.63;0.30;;;20.00;56.10;;;;;;5076369;28;20043;-56
2022/12/27 00:21:15;;;;;;;1.00;0.10;;;20.00;56.00;;;;;;5083154;28;20433;-55
2022/12/27 00:23:44;;;;;;;1.35;0.20;;;19.90;55.80;;;;;;5086331;28;20093;-58
2022/12/27 00:26:13;;;;;;;1.25;0.10;;;19.90;55.80;;;;;;5086133;28;20044;-56
2022/12/27 00:28:40;;;;;;;1.48;0.10;;;19.90;55.70;;;;;;5086345;28;20573;-56
2022/12/27 00:31:09;;;;;;;1.25;1.13;;;19.90;55.60;;;;;;5085163;28;20040;-54
2022/12/27 00:33:38;;;;;;;1.25;0.28;;;19.90;55.60;;;;;;5086833;28;20047;-54
2022/12/27 00:36:07;;;;;;;2.35;0.10;;;19.90;55.60;;;;;;5085140;28;20043;-55
2022/12/27 00:38:35;;;;;;;1.88;0.15;;;19.90;55.50;;;;;;5069908;28;20079;-54
2022/12/27 00:41:03;;;;;;;0.50;0.10;;;19.90;55.40;;;;;;5069612;28;20056;-55
2022/12/27 00:43:30;;;;;;;1.60;0.10;;;19.80;55.30;;;;;;5087099;28;20036;-58
2022/12/27 00:45:58;;;;;;;2.90;0.20;;;19.80;55.20;;;;;;5089705;28;20054;-57
2022/12/27 00:48:26;;;;;;;0.50;0.43;;;19.80;55.20;;;;;;5090100;28;20118;-56
2022/12/27 00:50:58;;;;;;;1.42;0.50;;;19.80;55.20;;;;;;5090228;28;20055;-56
2022/12/27 00:53:26;;;;;;;2.92;0.43;;;19.80;55.20;;;;;;5089887;28;20055;-54
2022/12/27 00:55:53;;;;;;;2.90;0.20;;;19.80;55.20;;;;;;5089520;28;20511;-55
2022/12/27 00:58:21;;;;;;;3.03;0.10;;;19.80;55.10;;;;;;5089392;28;20129;-55
2022/12/27 01:00:48;;;;;;;0.70;0.10;;;19.80;55.80;;;;;;5089789;28;20040;-53
2022/12/27 01:03:16;;;;;;;1.77;0.17;;;19.80;55.10;;;;;;5090140;28;20474;-56
2022/12/27 01:05:45;;;;;;;0.35;0.10;;;19.80;55.10;;;;;;5089846;28;20500;-57
2022/12/27 01:08:12;;;;;;;1.75;0.10;;;19.70;55.10;;;;;;5089386;28;20134;-55
2022/12/27 01:10:40;;;;;;;1.40;0.20;;;19.80;55.20;;;;;;5089404;28;20055;-56
2022/12/27 01:13:07;;;;;;;1.27;0.10;;;19.70;55.20;;;;;;5089648;28;20054;-55
2022/12/27 01:15:35;;;;;;;1.77;0.10;;;19.70;55.20;;;;;;5089131;28;20036;-57
2022/12/27 01:18:02;;;;;;;2.38;0.13;;;19.70;55.20;;;;;;5089724;28;20036;-56
2022/12/27 01:20:29;;;;;;;0.47;0.10;;;19.70;55.20;;;;;;5089726;28;20032;-57
2022/12/27 01:22:57;;;;;;;1.27;1.00;;;19.70;55.30;;;;;;5089072;28;20119;-55
2022/12/27 01:25:24;;;;;;;2.33;0.22;;;19.70;55.40;;;;;;5088963;28;20043;-56
2022/12/27 01:27:51;;;;;;;1.65;0.20;;;19.60;55.40;;;;;;5089272;28;20051;-55
2022/12/27 01:30:18;;;;;;;6.82;1.13;;;19.70;56.30;;;;;;5089409;28;20040;-56
2022/12/27 01:32:45;;;;;;;1.75;0.10;;;19.60;55.70;;;;;;5089399;28;20059;-55
2022/12/27 01:35:12;;;;;;;1.77;0.10;;;19.60;55.70;;;;;;5089370;28;20036;-58
2022/12/27 01:37:39;;;;;;;2.00;0.10;;;19.60;55.70;;;;;;5092052;28;20461;-56
2022/12/27 01:40:09;;;;;;;2.20;0.30;;;19.60;55.70;;;;;;5109346;28;20054;-55
2022/12/27 01:42:54;;;;;;;2.90;0.20;;;19.60;55.80;;;;;;5107846;28;20139;-57
2022/12/27 01:45:23;;;;;;;0.20;0.10;;;19.60;55.80;;;;;;5102574;28;20419;-56
2022/12/27 01:48:03;;;;;;;1.77;0.68;;;19.50;55.70;;;;;;5103089;28;20044;-58
2022/12/27 01:50:34;;;;;;;1.35;0.10;;;19.60;55.80;;;;;;5088936;28;20079;-56
2022/12/27 01:53:08;;;;;;;2.70;0.10;;;19.60;55.80;;;;;;5087196;28;20109;-54
2022/12/27 01:55:42;;;;;;;1.75;0.20;;;19.50;55.80;;;;;;5068283;28;20144;-56
2022/12/27 01:58:14;;;;;;;2.55;0.10;;;19.50;55.80;;;;;;5074518;28;20458;-55
2022/12/27 02:00:44;;;;;;;1.10;0.10;;;19.50;55.90;;;;;;5088367;28;20520;-56
2022/12/27 02:03:13;;;;;;;0.20;0.10;;;19.60;55.90;;;;;;5088609;28;20048;-56
2022/12/27 02:05:42;;;;;;;1.77;0.28;;;19.50;55.80;;;;;;5088626;28;20050;-55
2022/12/27 02:08:29;;;;;;;5.55;0.10;;;19.50;55.90;;;;;;5088120;28;20047;-57
2022/12/27 02:10:58;;;;;;;0.88;0.10;;;19.60;56.60;;;;;;5088506;28;20153;-56
2022/12/27 02:13:27;;;;;;;2.08;0.10;;;19.60;57.10;;;;;;5074964;28;20036;-55
2022/12/27 02:15:54;;;;;;;1.75;0.20;;;19.70;57.30;;;;;;5088129;28;20055;-56
2022/12/27 02:18:21;;;;;;;1.98;0.45;;;19.80;57.40;;;;;;5088225;28;20075;-55
2022/12/27 02:21:17;;;;;;;1.25;0.10;;;20.00;57.50;;;;;;5088340;28;20114;-56
2022/12/27 02:24:05;;;;;;;1.55;0.30;;;20.10;57.20;;;;;;5087945;28;20035;-55
2022/12/27 02:26:55;;;;;;;2.35;0.10;;;20.20;57.10;;;;;;5088064;28;20048;-55
2022/12/27 02:29:35;;;;;;;0.57;0.10;;;20.30;56.90;;;;;;5088030;28;20064;-56
2022/12/27 02:32:07;;;;;;;1.67;0.10;;;20.40;57.10;;;;;;5088082;28;20047;-56
2022/12/27 02:34:46;;;;;;;0.85;0.10;;;20.50;57.00;;;;;;5088105;28;20131;-56
2022/12/27 02:37:14;;;;;;;3.58;0.40;;;20.60;56.80;;;;;;5087532;28;20879;-56
2022/12/27 02:39:45;;;;;;;0.10;0.10;;;20.70;56.70;;;;;;5088124;28;20044;-56
2022/12/27 02:53:49;;;;;;;1.73;0.10;;;21.10;56.40;;;;;;5067566;28;20051;-57
2022/12/27 02:59:26;;;;;;;1.65;0.10;;;21.30;56.20;;;;;;5087326;28;20121;-55
2022/12/27 03:05:07;;;;;;;1.33;0.38;;;21.40;55.90;;;;;;5078953;28;20044;-55
2022/12/27 03:07:38;;;;;;;3.72;0.13;;;21.50;55.80;;;;;;5085622;28;20612;-58
2022/12/27 03:16:17;;;;;;;0.65;0.10;;;21.70;55.40;;;;;;5024535;28;20071;-56
2022/12/27 03:18:56;;;;;;;0.98;0.10;;;21.70;55.30;;;;;;5024592;28;20041;-58
2022/12/27 03:27:02;;;;;;;1.15;0.10;;;21.90;54.80;;;;;;5024275;28;20053;-56
2022/12/27 03:35:07;;;;;;;1.30;0.15;;;22.10;54.40;;;;;;5024159;28;20128;-57
2022/12/27 03:40:33;;;;;;;0.63;0.10;;;22.20;54.10;;;;;;5024482;28;20518;-57
2022/12/27 03:43:10;;;;;;;1.45;0.10;;;22.20;53.90;;;;;;5024056;28;20049;-57
2022/12/27 03:48:47;;;;;;;3.92;0.30;;;22.30;53.70;;;;;;5083173;28;20076;-58
2022/12/27 03:51:20;;;;;;;4.38;0.30;;;22.30;53.50;;;;;;5073882;28;20048;-55
2022/12/27 03:53:48;;;;;;;1.75;0.10;;;22.40;53.40;;;;;;5086909;28;20127;-57
2022/12/27 03:56:15;;;;;;;2.17;0.10;;;22.50;53.30;;;;;;5066745;28;20420;-56
2022/12/27 03:58:42;;;;;;;4.47;0.40;;;22.50;53.20;;;;;;5077273;28;20442;-57
2022/12/27 04:01:10;;;;;;;3.20;0.10;;;22.50;53.00;;;;;;5086714;28;20040;-56
2022/12/27 04:03:37;;;;;;;1.33;0.28;;;22.60;53.00;;;;;;5086344;28;20054;-56
2022/12/27 04:06:04;;;;;;;1.55;0.10;;;22.60;52.90;;;;;;5086837;28;20082;-57
2022/12/27 04:36:00;;;;;;;1.48;0.10;;;23.00;51.50;;;;;;5070232;28;20472;-58
2022/12/27 04:38:27;;;;;;;0.35;0.10;;;23.00;51.30;;;;;;5072397;28;20045;-57
2022/12/27 04:54:58;;;;;;;2.30;0.10;;;23.20;50.80;;;;;;5037537;28;20052;-57
2022/12/27 04:57:27;;;;;;;0.60;0.10;;;23.20;50.70;;;;;;5027118;28;20053;-58
2022/12/27 05:02:38;;;;;;;1.77;0.55;;;23.20;50.60;;;;;;4948781;28;20054;-53
2022/12/27 05:05:06;;;;;;;0.80;0.20;;;23.20;50.50;;;;;;4948762;29;20055;-53
2022/12/27 05:15:49;;;;;;;5.28;0.10;;;23.00;49.30;;;;;;4948520;29;20567;-54
2022/12/27 05:18:16;;;;;;;1.98;0.10;;;22.90;49.30;;;;;;4948307;29;20047;-52
2022/12/27 05:20:43;;;;;;;1.30;0.10;;;22.90;49.40;;;;;;4947689;28;20055;-55
2022/12/27 05:25:55;;;;;;;1.27;0.10;;;22.70;49.50;;;;;;4948293;29;20051;-55
2022/12/27 05:28:24;;;;;;;1.58;0.10;;;22.60;49.60;;;;;;4948323;29;20051;-52
2022/12/27 05:30:51;;;;;;;0.40;0.15;;;22.50;49.80;;;;;;4965691;28;20084;-54
2022/12/27 05:33:18;;;;;;;0.95;0.10;;;22.40;49.90;;;;;;5026575;28;20433;-53
2022/12/27 05:35:45;;;;;;;1.15;0.30;;;22.40;50.00;;;;;;5026436;28;20148;-55
2022/12/27 05:38:12;;;;;;;1.77;0.10;;;22.30;50.60;;;;;;5026971;28;20552;-55
2022/12/27 05:40:39;;;;;;;1.38;0.30;;;22.20;50.00;;;;;;5078228;28;20071;-54
2022/12/27 05:43:06;;;;;;;2.75;0.10;;;22.20;50.00;;;;;;5089449;28;20173;-56
2022/12/27 05:45:34;;;;;;;1.38;0.20;;;22.10;50.00;;;;;;5088386;28;20160;-51
2022/12/27 05:48:01;;;;;;;0.38;0.38;;;22.00;50.00;;;;;;5088755;28;20139;-52
2022/12/27 05:50:28;;;;;;;0.88;0.15;;;22.00;50.10;;;;;;5091117;28;20123;-51
2022/12/27 05:53:09;;;;;;;0.63;0.10;;;21.80;50.10;;;;;;5088416;28;20119;-54
2022/12/27 05:55:36;;;;;;;2.22;0.20;;;21.80;50.20;;;;;;5088919;28;20097;-55
2022/12/27 05:58:03;;;;;;;0.15;0.10;;;21.70;50.30;;;;;;5088417;28;20040;-54
2022/12/27 06:00:30;;;;;;;0.35;0.10;;;21.70;50.40;;;;;;5088183;28;20036;-56
2022/12/27 06:02:59;;;;;;;1.08;0.85;;;21.60;50.40;;;;;;5088432;28;20375;-54
2022/12/27 06:05:26;;;;;;;0.95;0.10;;;21.50;50.40;;;;;;5088431;28;20416;-54
2022/12/27 06:07:53;;;;;;;0.55;0.10;;;21.50;50.50;;;;;;5088325;28;20381;-55
2022/12/27 06:10:20;;;;;;;1.98;0.20;;;21.40;50.50;;;;;;5088221;28;20113;-53
2022/12/27 06:12:47;;;;;;;2.10;0.20;;;21.40;50.50;;;;;;5088231;28;20062;-53
2022/12/27 06:15:14;;;;;;;2.65;0.65;;;21.30;50.60;;;;;;5078322;28;20555;-53
2022/12/27 06:17:42;;;;;;;1.58;0.10;;;21.30;50.70;;;;;;5083873;28;20046;-54
2022/12/27 06:20:11;;;;;;;1.40;0.20;;;21.30;50.70;;;;;;5088109;28;20093;-54
2022/12/27 06:22:38;;;;;;;0.65;0.10;;;21.20;50.70;;;;;;5088064;28;20508;-55
2022/12/27 06:25:06;;;;;;;1.73;0.10;;;21.20;50.70;;;;;;5088038;28;20040;-54
2022/12/27 06:27:33;;;;;;;1.52;0.20;;;21.10;50.80;;;;;;5087839;28;20519;-55
2022/12/27 06:30:00;;;;;;;3.10;0.20;;;21.00;50.80;;;;;;5087922;28;20051;-55
2022/12/27 06:32:27;;;;;;;3.00;0.10;;;21.00;50.80;;;;;;5067127;28;20044;-53
2022/12/27 06:34:54;;;;;;;0.47;0.10;;;21.00;50.80;;;;;;5067856;28;20574;-55
2022/12/27 06:37:23;;;;;;;1.30;0.10;;;20.90;50.80;;;;;;5085779;28;20046;-54
2022/12/27 06:39:50;;;;;;;2.30;0.10;;;20.90;50.90;;;;;;5079315;28;20048;-54
2022/12/27 06:42:17;;;;;;;0.47;0.10;;;20.80;50.90;;;;;;5080848;28;20070;-51
2022/12/27 06:44:44;;;;;;;1.33;0.15;;;20.80;50.90;;;;;;5087302;28;20718;-56
2022/12/27 06:47:11;;;;;;;0.30;0.10;;;20.80;51.00;;;;;;5087385;28;20040;-52
2022/12/27 06:49:38;;;;;;;2.38;0.45;;;20.70;50.90;;;;;;5087636;28;20068;-55
2022/12/27 06:52:05;;;;;;;5.35;0.40;;;20.70;50.90;;;;;;5089586;28;20036;-57
2022/12/27 06:54:33;;;;;;;1.65;0.40;;;20.70;51.00;;;;;;5087167;28;20050;-56
2022/12/27 06:57:00;;;;;;;1.15;0.35;;;20.60;51.00;;;;;;5087365;28;20063;-56
2022/12/27 06:59:27;;;;;;;2.22;0.20;;;20.60;50.90;;;;;;5086995;28;20055;-56
2022/12/27 07:01:54;;;;;;;4.28;0.63;;;20.60;51.00;;;;;;5086594;28;20051;-57
2022/12/27 07:04:21;;;;;;;1.90;0.20;;;20.50;50.90;;;;;;5084514;28;20123;-55
2022/12/27 07:06:48;;;;;;;1.77;0.20;;;20.50;50.90;;;;;;5086641;28;20048;-55
2022/12/27 07:09:16;;;;;;;2.35;0.20;;;20.50;51.00;;;;;;5087127;28;20109;-56
2022/12/27 07:11:45;;;;;;;4.68;0.85;;;20.50;51.70;;;;;;5087345;28;20139;-55
2022/12/27 07:14:12;;;;;;;2.08;0.13;;;20.50;51.20;;;;;;5086965;28;20066;-55
2022/12/27 07:16:39;;;;;;;5.55;0.63;;;20.40;51.10;;;;;;5086938;28;20044;-56
2022/12/27 07:19:06;;;;;;;3.17;0.65;;;20.40;51.80;;;;;;5086876;28;20050;-55
2022/12/27 07:21:33;;;;;;;2.28;0.38;;;20.40;51.30;;;;;;5084571;28;20420;-55
2022/12/27 07:24:00;;;;;;;1.42;0.20;;;20.40;51.40;;;;;;5084176;28;20127;-57
2022/12/27 07:26:29;;;;;;;4.40;0.40;;;20.40;51.50;;;;;;5086026;28;20038;-58
2022/12/27 07:28:59;;;;;;;3.53;0.40;;;20.30;51.60;;;;;;5078762;28;20578;-55
2022/12/27 07:31:28;;;;;;;4.18;0.20;;;20.30;51.60;;;;;;5081928;28;20035;-55
2022/12/27 07:33:55;;;;;;;10.63;0.40;;;20.30;51.50;;;;;;5084146;28;20047;-64
2022/12/27 07:36:25;;;;;;;3.88;0.40;;;20.40;51.40;;;;;;5085627;28;20047;-64
2022/12/27 07:38:52;;;;;;;7.97;0.50;;;20.40;51.30;;;;;;5083420;28;20032;-62
2022/12/27 07:41:20;;;;;;;1.73;0.25;;;20.40;51.20;;;;;;5092652;28;20085;-66
2022/12/27 07:43:47;;;;;;;4.75;0.50;;;20.50;51.70;;;;;;5085791;28;20052;-64
2022/12/27 07:46:17;;;;;;;5.40;0.13;;;20.50;51.10;;;;;;5081856;28;20055;-63
2022/12/27 07:48:45;;;;;;;5.35;1.58;;;20.60;50.90;;;;;;5085963;28;20513;-60
2022/12/27 07:51:14;;;;;;;0.93;0.15;;;20.60;50.80;;;;;;5086169;28;20082;-61
2022/12/27 07:53:41;;;;;;;2.28;0.35;;;20.70;50.80;;;;;;5083707;28;20567;-57
2022/12/27 07:56:09;;;;;;;4.03;0.20;;;20.70;50.80;;;;;;5078900;28;20127;-62
2022/12/27 07:58:38;;;;;;;2.22;0.20;;;20.80;50.90;;;;;;5074286;28;20095;-57
2022/12/27 08:01:05;;;;;;;2.42;0.30;;;20.80;50.80;;;;;;5076290;28;20869;-59
2022/12/27 08:03:34;;;;;;;2.50;0.20;;;20.90;50.70;;;;;;5073547;28;20144;-64
2022/12/27 08:06:01;;;;;;;2.40;0.73;;;20.90;50.40;;;;;;5086053;28;20032;-61
2022/12/27 08:08:36;;;;;;;1.23;0.50;;;21.00;50.20;;;;;;5084825;28;20088;-66
2022/12/27 08:11:03;;;;;;;4.85;0.28;;;21.10;50.00;;;;;;5086054;28;20119;-54
2022/12/27 08:13:30;;;;;;;1.08;0.13;;;21.10;49.80;;;;;;5085244;28;20039;-61
2022/12/27 08:15:57;;;;;;;1.15;0.10;;;21.20;49.60;;;;;;5079854;28;21022;-61
2022/12/27 08:18:24;;;;;;;0.52;0.52;;;21.20;49.50;;;;;;5085909;28;20132;-61
2022/12/27 08:20:53;;;;;;;1.95;0.10;;;21.20;49.30;;;;;;5087493;28;20131;-61
2022/12/27 08:23:20;;;;;;;0.30;0.22;;;21.20;49.10;;;;;;5085469;28;20039;-57
2022/12/27 08:25:47;;;;;;;2.35;0.73;;;21.30;49.00;;;;;;5086875;28;20161;-61
2022/12/27 08:28:17;;;;;;;1.58;0.20;;;21.30;48.80;;;;;;5085312;28;20044;-54
2022/12/27 08:30:45;;;;;;;1.23;0.10;;;21.30;48.70;;;;;;5086584;28;20122;-57
2022/12/27 08:33:13;;;;;;;1.45;0.20;;;21.30;48.60;;;;;;5078586;28;20068;-56
2022/12/27 08:35:42;;;;;;;0.55;0.20;;;21.30;48.50;;;;;;5081142;28;20480;-61
2022/12/27 08:38:10;;;;;;;3.67;0.52;;;21.40;48.90;;;;;;5086390;28;20409;-59
2022/12/27 08:40:41;;;;;;;1.98;0.20;;;21.40;49.40;;;;;;5085586;28;20075;-62
2022/12/27 08:43:08;;;;;;;1.48;0.10;;;21.50;49.90;;;;;;5086254;28;20508;-61
2022/12/27 08:45:35;;;;;;;1.52;0.35;;;21.50;50.20;;;;;;5086445;28;20535;-62
2022/12/27 08:48:03;;;;;;;5.93;0.90;;;21.60;50.40;;;;;;5085989;28;20517;-63
2022/12/27 08:50:30;;;;;;;1.33;0.13;;;21.80;50.60;;;;;;5085891;28;20126;-66
2022/12/27 08:52:58;;;;;;;1.55;0.10;;;22.00;50.60;;;;;;5084541;28;20036;-66
2022/12/27 08:55:28;;;;;;;2.45;0.10;;;22.10;50.40;;;;;;5088185;28;20035;-67
2022/12/27 08:57:59;;;;;;;1.17;0.10;;;22.30;50.30;;;;;;5090861;28;20118;-62
2022/12/27 09:00:27;;;;;;;3.80;0.40;;;22.40;50.10;;;;;;5089297;28;20044;-63
2022/12/27 09:02:55;;;;;;;1.45;0.20;;;22.50;50.00;;;;;;5089882;28;20148;-62
2022/12/27 09:05:23;;;;;;;0.52;0.10;;;22.60;49.60;;;;;;5089031;28;20048;-57
2022/12/27 09:07:50;;;;;;;3.85;0.30;;;22.70;49.30;;;;;;5088982;28;20047;-59
2022/12/27 09:10:17;;;;;;;0.13;0.10;;;22.80;49.00;;;;;;5088383;28;20036;-45
2022/12/27 09:12:46;;;;;;;1.55;0.10;;;22.80;49.20;;;;;;5088179;28;20674;-47
2022/12/27 09:15:13;;;;;;;2.03;0.10;;;22.80;49.30;;;;;;5088988;28;20140;-46
2022/12/27 09:17:41;;;;;;;1.08;0.10;;;22.90;49.00;;;;;;5088943;28;20504;-53
2022/12/27 09:20:11;;;;;;;1.05;0.10;;;22.90;48.60;;;;;;5088763;28;20563;-54
2022/12/27 09:22:38;;;;;;;0.82;0.10;;;23.00;48.60;;;;;;5088697;28;20055;-52
2022/12/27 09:25:06;;;;;;;1.42;0.57;;;23.00;48.60;;;;;;5088851;28;20047;-52
2022/12/27 09:27:34;;;;;;;1.95;0.68;;;23.00;48.10;;;;;;5088683;28;20135;-62
2022/12/27 09:30:03;;;;;;;4.60;0.35;;;23.00;48.10;;;;;;5084329;28;20036;-58
2022/12/27 09:32:30;;;;;;;2.47;0.15;;;23.00;48.40;;;;;;5088653;28;20139;-58
2022/12/27 09:34:57;;;;;;;1.67;0.20;;;23.00;48.00;;;;;;5088829;28;20037;-56
2022/12/27 09:37:24;;;;;;;4.28;0.20;;;23.10;47.90;;;;;;5088323;28;20449;-58
2022/12/27 09:39:51;;;;;;;2.28;0.20;;;23.10;48.00;;;;;;5088727;28;20048;-59
2022/12/27 09:42:30;;;;;;;1.92;0.20;;;23.10;48.40;;;;;;5088636;28;20043;-57
2022/12/27 09:45:07;;;;;;;2.30;0.20;;;23.20;48.60;;;;;;5073709;28;20071;-58
2022/12/27 09:47:43;;;;;;;2.30;0.47;;;23.20;48.60;;;;;;5087568;28;20055;-55
2022/12/27 09:50:13;;;;;;;2.50;0.20;;;23.30;48.80;;;;;;5090683;28;20520;-59
2022/12/27 09:52:46;;;;;;;1.42;0.10;;;23.40;49.40;;;;;;5087704;28;20188;-58
2022/12/27 09:55:19;;;;;;;0.50;0.13;;;23.50;48.90;;;;;;5088283;28;20047;-57
2022/12/27 09:57:47;;;;;;;2.63;0.10;;;23.50;48.80;;;;;;5087704;28;20056;-55
2022/12/27 10:00:19;;;;;;;3.10;0.20;;;23.60;49.00;;;;;;5087945;28;20038;-57
2022/12/27 10:02:48;;;;;;;0.55;0.10;;;23.70;49.30;;;;;;5071447;28;20515;-57
2022/12/27 10:05:19;;;;;;;3.15;0.60;;;23.80;49.40;;;;;;5088259;28;20036;-55
2022/12/27 10:08:03;;;;;;;0.80;0.13;;;23.90;49.50;;;;;;5087366;28;20044;-57
2022/12/27 10:10:41;;;;;;;1.90;0.20;;;24.00;49.30;;;;;;5088064;28;20055;-59
2022/12/27 10:13:33;;;;;;;0.50;0.20;;;24.10;49.20;;;;;;5087174;28;20044;-59
2022/12/27 10:16:16;;;;;;;0.55;0.10;;;24.20;48.90;;;;;;5078691;28;20040;-56
2022/12/27 10:18:59;;;;;;;1.90;0.25;;;24.20;48.70;;;;;;5087370;28;20491;-55
2022/12/27 10:21:29;;;;;;;2.72;0.10;;;24.30;49.10;;;;;;5087574;28;20036;-57
2022/12/27 10:23:59;;;;;;;6.30;0.20;;;24.30;48.80;;;;;;5087729;28;20044;-51
2022/12/27 10:26:26;;;;;;;3.92;0.10;;;24.30;48.70;;;;;;5087587;28;20036;-50
2022/12/27 10:28:59;;;;;;;1.33;0.45;;;24.30;48.50;;;;;;5086869;28;20359;-51
2022/12/27 10:31:30;;;;;;;2.55;0.20;;;24.40;48.40;;;;;;5087517;28;20040;-51
2022/12/27 10:33:58;;;;;;;4.53;0.30;;;24.30;48.20;;;;;;5087617;28;20085;-49
2022/12/27 10:36:27;;;;;;;2.08;0.20;;;24.30;48.40;;;;;;5087142;28;20496;-52
2022/12/27 10:38:55;;;;;;;1.50;0.85;;;24.30;48.30;;;;;;5082831;28;20412;-48
2022/12/27 10:41:39;;;;;;;6.22;0.17;;;24.20;48.20;;;;;;5089609;28;20039;-48
2022/12/27 10:44:10;;;;;;;1.95;1.00;;;24.30;48.20;;;;;;5083768;28;20048;-63
2022/12/27 10:46:41;;;;;;;2.97;0.20;;;24.20;48.10;;;;;;5078681;28;20050;-56
2022/12/27 10:49:22;;;;;;;3.88;0.20;;;24.20;47.90;;;;;;5087396;28;20417;-49
2022/12/27 10:51:51;;;;;;;0.60;0.20;;;24.10;47.70;;;;;;5080314;28;20216;-57
2022/12/27 10:54:22;;;;;;;2.45;0.52;;;24.10;47.60;;;;;;5088040;28;20046;-56
2022/12/27 10:56:50;;;;;;;4.80;0.30;;;24.10;47.80;;;;;;5074149;28;20068;-54
2022/12/27 10:59:18;;;;;;;0.63;0.28;;;24.00;47.70;;;;;;5080619;28;20046;-57
2022/12/27 11:01:50;;;;;;;0.70;0.20;;;24.00;47.90;;;;;;5086801;28;20079;-60
2022/12/27 11:04:19;;;;;;;1.00;0.20;;;24.00;48.00;;;;;;5084779;28;20484;-59
2022/12/27 11:06:48;;;;;;;1.90;0.13;;;24.00;48.10;;;;;;5069449;28;20584;-57
2022/12/27 11:09:27;;;;;;;1.13;0.30;;;23.90;48.70;;;;;;5074063;28;20048;-59
2022/12/27 11:12:12;;;;;;;2.88;0.35;;;23.90;48.10;;;;;;5086520;28;20040;-59
2022/12/27 11:14:40;;;;;;;2.78;0.30;;;24.00;48.00;;;;;;5086758;28;20050;-58
2022/12/27 11:17:14;;;;;;;2.38;0.20;;;23.90;48.10;;;;;;5086971;28;20134;-55
2022/12/27 11:19:47;;;;;;;3.13;0.82;;;23.90;48.10;;;;;;5086933;28;20416;-57
2022/12/27 11:22:14;;;;;;;4.78;0.38;;;23.90;48.20;;;;;;5088175;28;20048;-57
2022/12/27 11:24:46;;;;;;;1.10;0.10;;;23.90;48.20;;;;;;5086903;28;20047;-58
2022/12/27 11:27:23;;;;;;;1.55;0.20;;;23.90;48.20;;;;;;5087372;28;20887;-58
2022/12/27 11:29:51;;;;;;;0.47;0.22;;;23.90;48.30;;;;;;5086542;28;20040;-59
2022/12/27 11:32:22;;;;;;;1.52;0.20;;;24.00;48.20;;;;;;5086447;28;20055;-57
2022/12/27 11:34:53;;;;;;;1.02;0.57;;;24.00;48.20;;;;;;5082720;28;20051;-52
2022/12/27 11:37:25;;;;;;;3.28;0.45;;;24.00;48.10;;;;;;5087310;28;20043;-51
2022/12/27 11:39:53;;;;;;;1.30;0.17;;;24.00;48.00;;;;;;5086924;28;20052;-48
2022/12/27 11:42:31;;;;;;;1.95;0.65;;;24.10;47.90;;;;;;5086214;28;20082;-53
2022/12/27 11:45:06;;;;;;;1.77;0.45;;;24.20;47.70;;;;;;5089008;28;20412;-52
2022/12/27 11:47:41;;;;;;;1.45;0.20;;;24.20;47.50;;;;;;5085897;28;20119;-51
2022/12/27 11:50:33;;;;;;;2.45;0.20;;;24.20;47.50;;;;;;5084988;28;20044;-45
2022/12/27 11:53:42;;;;;;;0.50;0.10;;;24.20;47.10;;;;;;5084516;28;20028;-49
2022/12/27 11:56:19;;;;;;;0.80;0.20;;;24.30;46.90;;;;;;5084879;28;20044;-48
2022/12/27 11:59:07;;;;;;;1.58;0.22;;;24.30;46.70;;;;;;5084948;28;20040;-46
2022/12/27 12:02:03;;;;;;;0.93;0.20;;;24.30;46.50;;;;;;5085911;28;20044;-49
2022/12/27 12:05:11;;;;;;;2.42;0.38;;;24.30;46.30;;;;;;5085792;28;20473;-48
2022/12/27 12:07:54;;;;;;;3.20;0.60;;;24.30;46.00;;;;;;5014587;28;20765;-46
2022/12/27 12:10:31;;;;;;;3.00;0.30;;;24.30;46.10;;;;;;5007412;28;20065;-48
2022/12/27 12:13:37;;;;;;;3.97;0.55;;;24.30;45.80;;;;;;4992634;28;20092;-47
2022/12/27 12:16:28;;;;;;;1.55;0.28;;;24.40;45.70;;;;;;4964772;28;20050;-50
2022/12/27 12:19:23;;;;;;;1.90;0.20;;;24.40;45.50;;;;;;4964661;28;20121;-46
2022/12/27 12:22:06;;;;;;;3.38;0.52;;;24.40;44.70;;;;;;4953120;28;20581;-45
2022/12/27 12:24:54;;;;;;;1.02;0.63;;;24.40;43.70;;;;;;4965184;28;20082;-44
2022/12/27 12:27:50;;;;;;;1.33;0.20;;;24.40;43.40;;;;;;4965038;28;20105;-45
2022/12/27 12:30:44;;;;;;;2.40;0.68;;;24.50;42.80;;;;;;4958883;28;20205;-48
2022/12/27 12:33:38;;;;;;;0.90;0.13;;;24.50;42.10;;;;;;4968092;28;20125;-43
2022/12/27 12:36:26;;;;;;;6.47;0.32;;;24.50;42.10;;;;;;4968050;28;20054;-46
2022/12/27 12:39:00;;;;;;;9.80;0.30;;;24.50;41.70;;;;;;4967905;28;20897;-44
2022/12/27 12:41:55;;;;;;;1.85;0.73;;;24.50;42.50;;;;;;4968688;28;20586;-44
2022/12/27 12:44:52;;;;;;;4.07;0.57;;;24.60;42.70;;;;;;4993792;28;20132;-44
2022/12/27 12:47:44;;;;;;;4.97;0.95;;;24.60;42.80;;;;;;5007302;28;20549;-45
2022/12/27 12:50:30;;;;;;;1.48;0.35;;;24.60;42.60;;;;;;5007504;28;20516;-44
2022/12/27 12:53:16;;;;;;;2.15;0.10;;;24.60;42.50;;;;;;5065443;28;20464;-44
2022/12/27 12:56:01;;;;;;;6.72;0.10;;;24.60;41.90;;;;;;5070009;28;20135;-44
2022/12/27 12:58:45;;;;;;;2.53;0.10;;;24.70;41.50;;;;;;5070155;28;20056;-45
2022/12/27 13:01:33;;;;;;;0.75;0.10;;;24.70;41.60;;;;;;5078484;28;20165;-44
2022/12/27 13:04:22;;;;;;;0.43;0.20;;;24.70;41.30;;;;;;5089959;28;20044;-44
2022/12/27 13:07:14;;;;;;;0.32;0.10;;;24.70;41.10;;;;;;5101084;28;20118;-43
2022/12/27 13:10:00;;;;;;;2.38;0.75;;;24.70;41.10;;;;;;5110094;28;20043;-43
2022/12/27 13:12:35;;;;;;;0.82;0.20;;;24.70;41.20;;;;;;5110260;28;20039;-44
2022/12/27 13:15:22;;;;;;;0.30;0.20;;;24.70;41.20;;;;;;5108460;28;20058;-44
2022/12/27 13:18:02;;;;;;;2.42;0.52;;;24.70;41.20;;;;;;5109538;28;20067;-44
2022/12/27 13:20:56;;;;;;;1.23;0.28;;;24.70;41.20;;;;;;5091431;28;20048;-44
2022/12/27 13:23:35;;;;;;;2.08;0.10;;;24.70;41.20;;;;;;5089422;28;20072;-44
2022/12/27 13:26:13;;;;;;;3.85;0.25;;;24.70;41.10;;;;;;5089509;28;20433;-44
2022/12/27 13:28:51;;;;;;;1.05;0.20;;;24.70;41.20;;;;;;5089481;28;20043;-43
2022/12/27 13:31:34;;;;;;;2.13;0.10;;;24.70;41.10;;;;;;5089285;28;20568;-43
2022/12/27 13:34:14;;;;;;;1.23;0.30;;;24.70;41.50;;;;;;5074887;28;20072;-45
2022/12/27 13:36:56;;;;;;;2.05;0.50;;;24.70;41.50;;;;;;5069218;28;20118;-45
2022/12/27 13:39:35;;;;;;;0.88;0.10;;;24.70;41.60;;;;;;5103391;28;20051;-44
2022/12/27 13:42:26;;;;;;;2.17;0.10;;;24.70;41.90;;;;;;5109084;28;20126;-46
2022/12/27 13:45:08;;;;;;;3.72;0.55;;;24.70;41.80;;;;;;5109153;28;20039;-43
2022/12/27 13:47:57;;;;;;;2.60;0.43;;;24.70;42.30;;;;;;5109709;28;20493;-44
2022/12/27 13:50:56;;;;;;;0.70;0.10;;;24.70;42.60;;;;;;5108212;28;20044;-44
2022/12/27 13:54:01;;;;;;;1.88;0.30;;;24.70;42.60;;;;;;5109321;28;20065;-45
2022/12/27 13:56:35;;;;;;;2.72;0.22;;;24.70;42.60;;;;;;5109482;28;20116;-44
2022/12/27 13:59:18;;;;;;;0.93;0.15;;;24.70;42.50;;;;;;5109056;28;20127;-46
2022/12/27 14:02:06;;;;;;;1.73;0.10;;;24.70;42.60;;;;;;5095121;27;20139;-46
2022/12/27 14:05:11;;;;;;;0.10;0.05;;;24.70;42.60;;;;;;5103458;28;20059;-44
2022/12/27 14:07:56;;;;;;;1.45;0.10;;;24.70;42.30;;;;;;5109206;28;20158;-44
2022/12/27 14:10:35;;;;;;;0.25;0.10;;;24.70;42.10;;;;;;5109040;28;20674;-44
2022/12/27 14:13:03;;;;;;;2.85;0.10;;;24.60;42.20;;;;;;5108505;28;20039;-44
2022/12/27 14:16:19;;;;;;;0.40;0.10;;;24.60;42.10;;;;;;5108901;28;20142;-45
2022/12/27 14:19:01;;;;;;;1.50;0.10;;;24.70;41.80;;;;;;5022038;28;20042;-46
2022/12/27 14:22:01;;;;;;;0.52;0.10;;;24.70;41.70;;;;;;5005380;28;20057;-44
2022/12/27 14:25:16;;;;;;;1.25;0.10;;;24.60;41.50;;;;;;4929203;29;20048;-44
2022/12/27 14:28:12;;;;;;;0.55;0.10;;;24.60;41.60;;;;;;4946973;29;20066;-46
2022/12/27 14:31:24;;;;;;;3.20;0.10;;;24.60;40.90;;;;;;4947523;29;20074;-44
2022/12/27 14:34:35;;;;;;;0.57;0.10;;;24.60;40.70;;;;;;4890202;29;20614;-43
2022/12/27 14:37:50;;;;;;;0.73;0.35;;;24.50;40.00;;;;;;4890553;29;20522;-46
2022/12/27 14:40:35;;;;;;;1.00;0.10;;;24.40;39.80;;;;;;4816303;29;20054;-44
2022/12/27 14:43:31;;;;;;;0.68;0.05;;;24.40;39.80;;;;;;4800655;29;20056;-43
2022/12/27 14:46:36;;;;;;;0.37;0.10;;;24.30;39.90;;;;;;4800699;29;20133;-45
2022/12/27 14:49:34;;;;;;;2.30;0.10;;;24.30;39.80;;;;;;4816222;29;20331;-46
2022/12/27 14:52:27;;;;;;;0.10;0.03;;;24.30;40.10;;;;;;4800556;29;20081;-46
2022/12/27 14:55:26;;;;;;;1.15;0.10;;;24.20;39.80;;;;;;4834932;29;20464;-46
2022/12/27 14:58:14;;;;;;;0.17;0.10;;;24.10;39.60;;;;;;4870913;29;20199;-45
2022/12/27 15:01:02;;;;;;;0.88;0.10;;;24.10;39.70;;;;;;4885425;29;20517;-44